createdAt,value
2023-05-05T00:00:00.037Z,19.78
2023-05-05T00:00:10.291Z,19.75
2023-05-05T00:00:20.554Z,19.78
2023-05-05T00:00:30.826Z,19.75
2023-05-05T00:00:41.088Z,19.75
2023-05-05T00:00:51.356Z,19.75
2023-05-05T00:01:01.623Z,19.75
2023-05-05T00:01:11.873Z,19.74
2023-05-05T00:01:22.140Z,19.74
2023-05-05T00:01:32.422Z,19.75
2023-05-05T00:01:42.668Z,19.74
2023-05-05T00:01:52.981Z,19.75
2023-05-05T00:02:03.237Z,19.72
2023-05-05T00:02:13.560Z,19.71
2023-05-05T00:02:23.820Z,19.74
2023-05-05T00:02:34.186Z,19.71
2023-05-05T00:02:44.534Z,19.72
2023-05-05T00:02:54.997Z,19.71
2023-05-05T00:03:05.346Z,19.72
2023-05-05T00:03:15.649Z,19.71
2023-05-05T00:03:26.084Z,19.71
2023-05-05T00:03:36.452Z,19.71
2023-05-05T00:03:46.850Z,19.71
2023-05-05T00:03:57.174Z,19.70
2023-05-05T00:04:07.468Z,19.70
2023-05-05T00:04:18.001Z,19.67
2023-05-05T00:04:28.135Z,19.70
2023-05-05T00:04:38.409Z,19.67
2023-05-05T00:04:48.672Z,19.70
2023-05-05T00:04:58.929Z,19.70
2023-05-05T00:05:09.186Z,19.66
2023-05-05T00:05:19.457Z,19.67
2023-05-05T00:05:29.718Z,19.66
2023-05-05T00:05:39.980Z,19.67
2023-05-05T00:05:50.246Z,19.67
2023-05-05T00:06:00.523Z,19.66
2023-05-05T00:06:10.779Z,19.66
2023-05-05T00:06:21.020Z,19.66
2023-05-05T00:06:31.282Z,19.66
2023-05-05T00:06:41.543Z,19.63
2023-05-05T00:06:51.805Z,19.64
2023-05-05T00:07:02.061Z,19.64
2023-05-05T00:07:12.330Z,19.66
2023-05-05T00:07:22.605Z,19.63
2023-05-05T00:07:32.867Z,19.64
2023-05-05T00:07:43.120Z,19.63
2023-05-05T00:07:53.405Z,19.64
2023-05-05T00:08:03.684Z,19.63
2023-05-05T00:08:13.933Z,19.62
2023-05-05T00:08:24.214Z,19.64
2023-05-05T00:08:34.456Z,19.63
2023-05-05T00:08:44.705Z,19.63
2023-05-05T00:08:54.968Z,19.60
2023-05-05T00:09:05.232Z,19.60
2023-05-05T00:09:15.533Z,19.62
2023-05-05T00:09:25.753Z,19.62
2023-05-05T00:09:36.011Z,19.60
2023-05-05T00:09:46.288Z,19.60
2023-05-05T00:09:56.527Z,19.60
2023-05-05T00:10:07.124Z,19.59
2023-05-05T00:10:17.068Z,19.59
2023-05-05T00:10:27.331Z,19.59
2023-05-05T00:10:37.592Z,19.59
2023-05-05T00:10:47.856Z,19.59
2023-05-05T00:10:58.124Z,19.56
2023-05-05T00:11:08.442Z,19.56
2023-05-05T00:11:18.667Z,19.56
2023-05-05T00:11:28.919Z,19.56
2023-05-05T00:11:39.179Z,19.57
2023-05-05T00:11:49.442Z,19.55
2023-05-05T00:11:59.703Z,19.55
2023-05-05T00:12:09.969Z,19.55
2023-05-05T00:12:20.234Z,19.55
2023-05-05T00:12:30.559Z,19.56
2023-05-05T00:12:40.835Z,19.53
2023-05-05T00:12:51.142Z,19.52
2023-05-05T00:13:01.394Z,19.53
2023-05-05T00:13:11.791Z,19.53
2023-05-05T00:13:21.917Z,19.53
2023-05-05T00:13:32.173Z,19.49
2023-05-05T00:13:42.433Z,19.52
2023-05-05T00:13:52.705Z,19.52
2023-05-05T00:14:02.996Z,19.48
2023-05-05T00:14:13.236Z,19.49
2023-05-05T00:14:23.503Z,19.52
2023-05-05T00:14:33.767Z,19.49
2023-05-05T00:14:44.018Z,19.49
2023-05-05T00:14:54.293Z,19.48
2023-05-05T00:15:04.551Z,19.49
2023-05-05T00:15:14.802Z,19.47
2023-05-05T00:15:25.056Z,19.48
2023-05-05T00:15:35.331Z,19.47
2023-05-05T00:15:45.606Z,19.47
2023-05-05T00:15:55.876Z,19.45
2023-05-05T00:16:06.136Z,19.45
2023-05-05T00:16:16.394Z,19.47
2023-05-05T00:16:26.701Z,19.47
2023-05-05T00:16:37.006Z,19.45
2023-05-05T00:16:47.331Z,19.47
2023-05-05T00:16:57.610Z,19.45
2023-05-05T00:17:08.011Z,19.42
2023-05-05T00:17:18.304Z,19.42
2023-05-05T00:17:28.554Z,19.44
2023-05-05T00:17:38.829Z,19.42
2023-05-05T00:17:49.098Z,19.44
2023-05-05T00:17:59.370Z,19.42
2023-05-05T00:18:09.694Z,19.44
2023-05-05T00:18:19.948Z,19.42
2023-05-05T00:18:30.189Z,19.42
2023-05-05T00:18:40.436Z,19.41
2023-05-05T00:18:50.697Z,19.41
2023-05-05T00:19:00.972Z,19.41
2023-05-05T00:19:11.254Z,19.42
2023-05-05T00:19:21.496Z,19.39
2023-05-05T00:19:31.749Z,19.39
2023-05-05T00:19:42.030Z,19.41
2023-05-05T00:19:52.259Z,19.41
2023-05-05T00:20:02.554Z,19.39
2023-05-05T00:20:12.791Z,19.39
2023-05-05T00:20:23.046Z,19.41
2023-05-05T00:20:33.318Z,19.39
2023-05-05T00:20:43.586Z,19.41
2023-05-05T00:20:53.886Z,19.38
2023-05-05T00:21:04.115Z,19.39
2023-05-05T00:21:14.384Z,19.38
2023-05-05T00:21:24.632Z,19.38
2023-05-05T00:21:34.894Z,19.37
2023-05-05T00:21:45.156Z,19.38
2023-05-05T00:21:55.419Z,19.37
2023-05-05T00:22:05.681Z,19.35
2023-05-05T00:22:15.955Z,19.35
2023-05-05T00:22:26.204Z,19.34
2023-05-05T00:22:36.470Z,19.34
2023-05-05T00:22:46.739Z,19.35
2023-05-05T00:22:56.981Z,19.35
2023-05-05T00:23:07.237Z,19.35
2023-05-05T00:23:17.514Z,19.32
2023-05-05T00:23:27.785Z,19.35
2023-05-05T00:23:38.024Z,19.34
2023-05-05T00:23:48.280Z,19.32
2023-05-05T00:23:58.560Z,19.34
2023-05-05T00:24:08.808Z,19.32
2023-05-05T00:24:19.072Z,19.32
2023-05-05T00:24:29.338Z,19.32
2023-05-05T00:24:39.592Z,19.32
2023-05-05T00:24:49.851Z,19.32
2023-05-05T00:25:00.127Z,19.30
2023-05-05T00:25:10.384Z,19.32
2023-05-05T00:25:20.641Z,19.30
2023-05-05T00:25:30.926Z,19.29
2023-05-05T00:25:41.182Z,19.29
2023-05-05T00:25:51.446Z,19.29
2023-05-05T00:26:01.721Z,19.30
2023-05-05T00:26:11.993Z,19.29
2023-05-05T00:26:22.226Z,19.29
2023-05-05T00:26:32.485Z,19.27
2023-05-05T00:26:42.752Z,19.26
2023-05-05T00:26:53.017Z,19.27
2023-05-05T00:27:03.283Z,19.24
2023-05-05T00:27:13.539Z,19.26
2023-05-05T00:27:23.789Z,19.26
2023-05-05T00:27:34.053Z,19.26
2023-05-05T00:27:44.316Z,19.26
2023-05-05T00:27:54.580Z,19.24
2023-05-05T00:28:04.840Z,19.24
2023-05-05T00:28:15.095Z,19.26
2023-05-05T00:28:25.359Z,19.26
2023-05-05T00:28:35.629Z,19.26
2023-05-05T00:28:45.956Z,19.26
2023-05-05T00:28:56.173Z,19.23
2023-05-05T00:29:06.433Z,19.24
2023-05-05T00:29:16.704Z,19.24
2023-05-05T00:29:26.983Z,19.24
2023-05-05T00:29:37.250Z,19.24
2023-05-05T00:29:47.492Z,19.23
2023-05-05T00:29:57.755Z,19.22
2023-05-05T00:30:08.367Z,19.23
2023-05-05T00:30:18.294Z,19.22
2023-05-05T00:30:28.550Z,19.22
2023-05-05T00:30:38.850Z,19.22
2023-05-05T00:30:49.179Z,19.20
2023-05-05T00:30:59.403Z,19.20
2023-05-05T00:31:09.645Z,19.22
2023-05-05T00:31:19.978Z,19.20
2023-05-05T00:31:30.263Z,19.20
2023-05-05T00:31:40.619Z,19.22
2023-05-05T00:31:50.923Z,19.19
2023-05-05T00:32:01.191Z,19.19
2023-05-05T00:32:11.444Z,19.19
2023-05-05T00:32:21.754Z,19.19
2023-05-05T00:32:32.011Z,19.17
2023-05-05T00:32:42.340Z,19.19
2023-05-05T00:32:52.605Z,19.20
2023-05-05T00:33:02.991Z,19.17
2023-05-05T00:33:13.268Z,19.17
2023-05-05T00:33:23.534Z,19.17
2023-05-05T00:33:33.824Z,19.17
2023-05-05T00:33:44.055Z,19.16
2023-05-05T00:33:54.331Z,19.19
2023-05-05T00:34:04.580Z,19.16
2023-05-05T00:34:14.841Z,19.16
2023-05-05T00:34:25.108Z,19.17
2023-05-05T00:34:35.493Z,19.16
2023-05-05T00:34:45.741Z,19.16
2023-05-05T00:34:56.002Z,19.15
2023-05-05T00:35:06.307Z,19.17
2023-05-05T00:35:16.567Z,19.16
2023-05-05T00:35:26.833Z,19.15
2023-05-05T00:35:37.140Z,19.16
2023-05-05T00:35:47.376Z,19.15
2023-05-05T00:35:57.626Z,19.16
2023-05-05T00:36:07.885Z,19.15
2023-05-05T00:36:18.149Z,19.15
2023-05-05T00:36:28.410Z,19.15
2023-05-05T00:36:38.672Z,19.15
2023-05-05T00:36:48.930Z,19.12
2023-05-05T00:36:59.200Z,19.15
2023-05-05T00:37:09.467Z,19.12
2023-05-05T00:37:19.714Z,19.11
2023-05-05T00:37:29.975Z,19.11
2023-05-05T00:37:40.238Z,19.12
2023-05-05T00:37:50.494Z,19.09
2023-05-05T00:38:00.756Z,19.09
2023-05-05T00:38:11.014Z,19.11
2023-05-05T00:38:21.277Z,19.08
2023-05-05T00:38:31.546Z,19.08
2023-05-05T00:38:41.812Z,19.09
2023-05-05T00:38:52.060Z,19.09
2023-05-05T00:39:02.326Z,19.07
2023-05-05T00:39:12.586Z,19.08
2023-05-05T00:39:22.845Z,19.08
2023-05-05T00:39:33.107Z,19.08
2023-05-05T00:39:43.372Z,19.08
2023-05-05T00:39:53.627Z,19.07
2023-05-05T00:40:03.903Z,19.08
2023-05-05T00:40:14.154Z,19.08
2023-05-05T00:40:24.407Z,19.07
2023-05-05T00:40:34.681Z,19.08
2023-05-05T00:40:44.947Z,19.05
2023-05-05T00:40:55.212Z,19.07
2023-05-05T00:41:05.492Z,19.05
2023-05-05T00:41:15.760Z,19.05
2023-05-05T00:41:26.012Z,19.05
2023-05-05T00:41:36.274Z,19.07
2023-05-05T00:41:46.543Z,19.01
2023-05-05T00:41:56.798Z,19.04
2023-05-05T00:42:07.056Z,19.04
2023-05-05T00:42:17.316Z,19.04
2023-05-05T00:42:27.579Z,19.04
2023-05-05T00:42:37.838Z,19.01
2023-05-05T00:42:48.129Z,19.04
2023-05-05T00:42:58.369Z,19.04
2023-05-05T00:43:08.635Z,19.00
2023-05-05T00:43:18.885Z,19.00
2023-05-05T00:43:29.143Z,19.01
2023-05-05T00:43:39.404Z,18.98
2023-05-05T00:43:49.677Z,19.00
2023-05-05T00:43:59.932Z,19.00
2023-05-05T00:44:10.188Z,18.98
2023-05-05T00:44:20.445Z,18.98
2023-05-05T00:44:30.718Z,19.00
2023-05-05T00:44:40.966Z,18.97
2023-05-05T00:44:51.234Z,18.97
2023-05-05T00:45:01.504Z,18.96
2023-05-05T00:45:11.752Z,18.98
2023-05-05T00:45:22.010Z,18.97
2023-05-05T00:45:32.315Z,18.97
2023-05-05T00:45:42.554Z,18.96
2023-05-05T00:45:52.807Z,18.94
2023-05-05T00:46:03.159Z,18.97
2023-05-05T00:46:13.483Z,18.96
2023-05-05T00:46:23.744Z,18.96
2023-05-05T00:46:34.055Z,18.94
2023-05-05T00:46:44.421Z,18.94
2023-05-05T00:46:54.662Z,18.94
2023-05-05T00:47:04.936Z,18.94
2023-05-05T00:47:15.188Z,18.94
2023-05-05T00:47:25.453Z,18.91
2023-05-05T00:47:35.726Z,18.92
2023-05-05T00:47:46.061Z,18.89
2023-05-05T00:47:56.334Z,18.89
2023-05-05T00:48:06.614Z,18.91
2023-05-05T00:48:16.947Z,18.89
2023-05-05T00:48:27.264Z,18.89
2023-05-05T00:48:37.510Z,18.89
2023-05-05T00:48:47.767Z,18.89
2023-05-05T00:48:58.072Z,18.91
2023-05-05T00:49:08.337Z,18.89
2023-05-05T00:49:18.595Z,18.88
2023-05-05T00:49:28.909Z,18.89
2023-05-05T00:49:39.221Z,18.88
2023-05-05T00:49:49.485Z,18.88
2023-05-05T00:49:59.744Z,18.86
2023-05-05T00:50:10.074Z,18.88
2023-05-05T00:50:20.314Z,18.86
2023-05-05T00:50:30.722Z,18.86
2023-05-05T00:50:41.038Z,18.86
2023-05-05T00:50:51.307Z,18.85
2023-05-05T00:51:01.572Z,18.85
2023-05-05T00:51:11.833Z,18.85
2023-05-05T00:51:22.101Z,18.83
2023-05-05T00:51:32.349Z,18.83
2023-05-05T00:51:42.615Z,18.83
2023-05-05T00:51:52.872Z,18.85
2023-05-05T00:52:03.134Z,18.82
2023-05-05T00:52:13.394Z,18.85
2023-05-05T00:52:23.654Z,18.83
2023-05-05T00:52:33.913Z,18.83
2023-05-05T00:52:44.172Z,18.83
2023-05-05T00:52:54.432Z,18.81
2023-05-05T00:53:04.742Z,18.82
2023-05-05T00:53:15.002Z,18.81
2023-05-05T00:53:25.253Z,18.82
2023-05-05T00:53:35.516Z,18.81
2023-05-05T00:53:45.769Z,18.81
2023-05-05T00:53:56.054Z,18.81
2023-05-05T00:54:06.293Z,18.81
2023-05-05T00:54:16.574Z,18.78
2023-05-05T00:54:26.814Z,18.78
2023-05-05T00:54:37.091Z,18.78
2023-05-05T00:54:47.337Z,18.79
2023-05-05T00:54:57.608Z,18.76
2023-05-05T00:55:07.873Z,18.74
2023-05-05T00:55:18.115Z,18.76
2023-05-05T00:55:28.420Z,18.74
2023-05-05T00:55:38.696Z,18.74
2023-05-05T00:55:48.950Z,18.74
2023-05-05T00:55:59.238Z,18.74
2023-05-05T00:56:09.468Z,18.74
2023-05-05T00:56:19.747Z,18.74
2023-05-05T00:56:29.996Z,18.73
2023-05-05T00:56:40.253Z,18.73
2023-05-05T00:56:50.506Z,18.71
2023-05-05T00:57:00.766Z,18.73
2023-05-05T00:57:11.033Z,18.71
2023-05-05T00:57:21.296Z,18.73
2023-05-05T00:57:31.562Z,18.71
2023-05-05T00:57:41.771Z,18.70
2023-05-05T00:57:52.032Z,18.70
2023-05-05T00:58:02.296Z,18.68
2023-05-05T00:58:12.548Z,18.68
2023-05-05T00:58:22.815Z,18.68
2023-05-05T00:58:33.141Z,18.68
2023-05-05T00:58:43.374Z,18.70
2023-05-05T00:58:53.635Z,18.67
2023-05-05T00:59:03.898Z,18.66
2023-05-05T00:59:14.155Z,18.68
2023-05-05T00:59:24.415Z,18.66
2023-05-05T00:59:34.682Z,18.66
2023-05-05T00:59:44.944Z,18.66
2023-05-05T00:59:55.201Z,18.66
2023-05-05T01:00:05.665Z,18.66
2023-05-05T01:00:15.744Z,18.66
2023-05-05T01:00:26.023Z,18.66
2023-05-05T01:00:36.278Z,18.66
2023-05-05T01:00:46.555Z,18.63
2023-05-05T01:00:56.809Z,18.63
2023-05-05T01:01:07.066Z,18.61
2023-05-05T01:01:17.377Z,18.64
2023-05-05T01:01:27.622Z,18.63
2023-05-05T01:01:37.885Z,18.61
2023-05-05T01:01:48.182Z,18.60
2023-05-05T01:01:58.536Z,18.61
2023-05-05T01:02:08.781Z,18.61
2023-05-05T01:02:19.046Z,18.61
2023-05-05T01:02:29.345Z,18.60
2023-05-05T01:02:39.600Z,18.58
2023-05-05T01:02:49.904Z,18.60
2023-05-05T01:03:00.369Z,18.58
2023-05-05T01:03:10.663Z,18.58
2023-05-05T01:03:21.033Z,18.57
2023-05-05T01:03:31.377Z,18.57
2023-05-05T01:03:41.857Z,18.57
2023-05-05T01:03:52.240Z,18.57
2023-05-05T01:04:02.281Z,18.57
2023-05-05T01:04:12.523Z,18.55
2023-05-05T01:04:22.788Z,18.55
2023-05-05T01:04:33.050Z,18.58
2023-05-05T01:04:43.306Z,18.53
2023-05-05T01:04:53.570Z,18.55
2023-05-05T01:05:03.851Z,18.53
2023-05-05T01:05:14.140Z,18.52
2023-05-05T01:05:24.383Z,18.52
2023-05-05T01:05:34.642Z,18.52
2023-05-05T01:05:44.916Z,18.52
2023-05-05T01:05:55.167Z,18.52
2023-05-05T01:06:05.432Z,18.51
2023-05-05T01:06:15.712Z,18.52
2023-05-05T01:06:25.965Z,18.51
2023-05-05T01:06:36.231Z,18.49
2023-05-05T01:06:46.495Z,18.51
2023-05-05T01:06:56.745Z,18.48
2023-05-05T01:07:07.009Z,18.49
2023-05-05T01:07:17.284Z,18.48
2023-05-05T01:07:27.542Z,18.48
2023-05-05T01:07:37.796Z,18.48
2023-05-05T01:07:48.058Z,18.48
2023-05-05T01:07:58.318Z,18.48
2023-05-05T01:08:08.569Z,18.46
2023-05-05T01:08:18.838Z,18.46
2023-05-05T01:08:29.092Z,18.46
2023-05-05T01:08:39.356Z,18.46
2023-05-05T01:08:49.613Z,18.46
2023-05-05T01:08:59.875Z,18.43
2023-05-05T01:09:10.134Z,18.43
2023-05-05T01:09:20.398Z,18.43
2023-05-05T01:09:30.657Z,18.43
2023-05-05T01:09:40.911Z,18.42
2023-05-05T01:10:00.836Z,18.43
2023-05-05T01:10:17.891Z,18.42
2023-05-05T01:10:20.364Z,18.41
2023-05-05T01:10:23.642Z,18.41
2023-05-05T01:10:32.612Z,18.39
2023-05-05T01:10:42.878Z,18.37
2023-05-05T01:10:53.138Z,18.41
2023-05-05T01:11:03.397Z,18.41
2023-05-05T01:11:13.672Z,18.37
2023-05-05T01:11:23.948Z,18.39
2023-05-05T01:11:34.193Z,18.39
2023-05-05T01:11:44.460Z,18.37
2023-05-05T01:11:54.702Z,18.36
2023-05-05T01:12:04.970Z,18.37
2023-05-05T01:12:15.240Z,18.36
2023-05-05T01:12:25.521Z,18.36
2023-05-05T01:12:35.785Z,18.36
2023-05-05T01:12:46.066Z,18.37
2023-05-05T01:12:56.365Z,18.36
2023-05-05T01:13:06.732Z,18.36
2023-05-05T01:13:16.871Z,18.36
2023-05-05T01:13:27.121Z,18.34
2023-05-05T01:13:37.388Z,18.33
2023-05-05T01:13:47.636Z,18.34
2023-05-05T01:13:57.896Z,18.33
2023-05-05T01:14:08.154Z,18.33
2023-05-05T01:14:18.440Z,18.33
2023-05-05T01:14:28.684Z,18.31
2023-05-05T01:14:38.946Z,18.33
2023-05-05T01:14:49.205Z,18.33
2023-05-05T01:14:59.463Z,18.31
2023-05-05T01:15:09.727Z,18.31
2023-05-05T01:15:20.012Z,18.30
2023-05-05T01:15:30.282Z,18.30
2023-05-05T01:15:40.567Z,18.30
2023-05-05T01:15:50.822Z,18.28
2023-05-05T01:16:01.119Z,18.31
2023-05-05T01:16:11.464Z,18.28
2023-05-05T01:16:21.719Z,18.28
2023-05-05T01:16:32.078Z,18.27
2023-05-05T01:16:42.369Z,18.28
2023-05-05T01:16:52.615Z,18.27
2023-05-05T01:17:02.878Z,18.27
2023-05-05T01:17:13.143Z,18.28
2023-05-05T01:17:23.411Z,18.26
2023-05-05T01:17:33.710Z,18.27
2023-05-05T01:17:43.992Z,18.27
2023-05-05T01:17:54.289Z,18.26
2023-05-05T01:18:04.575Z,18.24
2023-05-05T01:18:14.810Z,18.26
2023-05-05T01:18:25.065Z,18.23
2023-05-05T01:18:35.333Z,18.23
2023-05-05T01:18:45.589Z,18.24
2023-05-05T01:18:55.869Z,18.24
2023-05-05T01:19:06.120Z,18.21
2023-05-05T01:19:16.375Z,18.23
2023-05-05T01:19:26.645Z,18.23
2023-05-05T01:19:36.890Z,18.21
2023-05-05T01:19:47.151Z,18.21
2023-05-05T01:19:57.418Z,18.21
2023-05-05T01:20:07.998Z,18.21
2023-05-05T01:20:18.078Z,18.19
2023-05-05T01:20:28.353Z,18.19
2023-05-05T01:20:38.604Z,18.18
2023-05-05T01:20:48.874Z,18.19
2023-05-05T01:20:59.130Z,18.18
2023-05-05T01:21:09.393Z,18.19
2023-05-05T01:21:19.660Z,18.18
2023-05-05T01:21:29.919Z,18.18
2023-05-05T01:21:40.195Z,18.18
2023-05-05T01:21:50.457Z,18.16
2023-05-05T01:22:00.783Z,18.16
2023-05-05T01:22:11.051Z,18.15
2023-05-05T01:22:21.320Z,18.15
2023-05-05T01:22:31.569Z,18.13
2023-05-05T01:22:41.839Z,18.15
2023-05-05T01:22:52.096Z,18.15
2023-05-05T01:23:02.382Z,18.12
2023-05-05T01:23:12.634Z,18.13
2023-05-05T01:23:22.895Z,18.11
2023-05-05T01:23:33.172Z,18.12
2023-05-05T01:23:43.431Z,18.13
2023-05-05T01:23:53.678Z,18.11
2023-05-05T01:24:03.935Z,18.11
2023-05-05T01:24:14.198Z,18.09
2023-05-05T01:24:24.457Z,18.09
2023-05-05T01:24:34.714Z,18.08
2023-05-05T01:24:44.984Z,18.08
2023-05-05T01:24:55.247Z,18.08
2023-05-05T01:25:05.533Z,18.08
2023-05-05T01:25:15.780Z,18.08
2023-05-05T01:25:26.040Z,18.05
2023-05-05T01:25:36.299Z,18.05
2023-05-05T01:25:46.557Z,18.05
2023-05-05T01:25:56.822Z,18.05
2023-05-05T01:26:07.078Z,18.06
2023-05-05T01:26:17.350Z,18.05
2023-05-05T01:26:27.616Z,18.05
2023-05-05T01:26:37.855Z,18.03
2023-05-05T01:26:48.170Z,18.03
2023-05-05T01:26:58.415Z,18.02
2023-05-05T01:27:08.678Z,18.03
2023-05-05T01:27:18.934Z,18.03
2023-05-05T01:27:29.203Z,18.02
2023-05-05T01:27:39.460Z,18.00
2023-05-05T01:27:49.719Z,18.02
2023-05-05T01:27:59.999Z,18.00
2023-05-05T01:28:10.259Z,18.02
2023-05-05T01:28:20.529Z,18.02
2023-05-05T01:28:30.781Z,18.00
2023-05-05T01:28:41.042Z,18.00
2023-05-05T01:28:51.300Z,18.00
2023-05-05T01:29:01.576Z,17.97
2023-05-05T01:29:11.821Z,18.00
2023-05-05T01:29:22.084Z,17.97
2023-05-05T01:29:32.345Z,17.95
2023-05-05T01:29:42.617Z,17.97
2023-05-05T01:29:52.868Z,17.97
2023-05-05T01:30:03.232Z,17.94
2023-05-05T01:30:13.490Z,17.95
2023-05-05T01:30:23.734Z,17.95
2023-05-05T01:30:34.008Z,17.94
2023-05-05T01:30:44.281Z,17.95
2023-05-05T01:30:54.537Z,17.94
2023-05-05T01:31:04.787Z,17.93
2023-05-05T01:31:15.084Z,17.93
2023-05-05T01:31:25.391Z,17.91
2023-05-05T01:31:35.702Z,17.94
2023-05-05T01:31:45.968Z,17.91
2023-05-05T01:31:56.396Z,17.93
2023-05-05T01:32:06.450Z,17.90
2023-05-05T01:32:16.716Z,17.90
2023-05-05T01:32:27.008Z,17.90
2023-05-05T01:32:37.326Z,17.90
2023-05-05T01:32:47.558Z,17.90
2023-05-05T01:32:57.854Z,17.88
2023-05-05T01:33:08.116Z,17.90
2023-05-05T01:33:18.398Z,17.88
2023-05-05T01:33:28.629Z,17.88
2023-05-05T01:33:38.891Z,17.87
2023-05-05T01:33:49.157Z,17.87
2023-05-05T01:33:59.414Z,17.86
2023-05-05T01:34:09.756Z,17.87
2023-05-05T01:34:19.975Z,17.87
2023-05-05T01:34:30.235Z,17.86
2023-05-05T01:34:40.494Z,17.86
2023-05-05T01:34:50.756Z,17.84
2023-05-05T01:35:01.016Z,17.86
2023-05-05T01:35:11.284Z,17.84
2023-05-05T01:35:21.560Z,17.84
2023-05-05T01:35:31.822Z,17.84
2023-05-05T01:35:42.066Z,17.82
2023-05-05T01:35:52.319Z,17.84
2023-05-05T01:36:02.583Z,17.86
2023-05-05T01:36:12.834Z,17.82
2023-05-05T01:36:23.093Z,17.82
2023-05-05T01:36:33.361Z,17.82
2023-05-05T01:36:43.617Z,17.80
2023-05-05T01:36:53.899Z,17.82
2023-05-05T01:37:04.155Z,17.79
2023-05-05T01:37:14.417Z,17.80
2023-05-05T01:37:24.671Z,17.80
2023-05-05T01:37:34.953Z,17.80
2023-05-05T01:37:45.216Z,17.79
2023-05-05T01:37:55.496Z,17.80
2023-05-05T01:38:05.760Z,17.78
2023-05-05T01:38:16.006Z,17.76
2023-05-05T01:38:26.258Z,17.78
2023-05-05T01:38:36.531Z,17.76
2023-05-05T01:38:46.794Z,17.76
2023-05-05T01:38:57.045Z,17.75
2023-05-05T01:39:07.303Z,17.75
2023-05-05T01:39:17.561Z,17.73
2023-05-05T01:39:27.822Z,17.75
2023-05-05T01:39:38.084Z,17.75
2023-05-05T01:39:48.344Z,17.73
2023-05-05T01:39:58.605Z,17.73
2023-05-05T01:40:09.061Z,17.73
2023-05-05T01:40:19.213Z,17.72
2023-05-05T01:40:29.496Z,17.73
2023-05-05T01:40:39.764Z,17.73
2023-05-05T01:40:50.026Z,17.73
2023-05-05T01:41:00.289Z,17.72
2023-05-05T01:41:10.565Z,17.72
2023-05-05T01:41:20.801Z,17.71
2023-05-05T01:41:31.168Z,17.71
2023-05-05T01:41:41.421Z,17.71
2023-05-05T01:41:51.684Z,17.71
2023-05-05T01:42:01.938Z,17.71
2023-05-05T01:42:12.196Z,17.68
2023-05-05T01:42:22.469Z,17.69
2023-05-05T01:42:32.724Z,17.71
2023-05-05T01:42:42.982Z,17.68
2023-05-05T01:42:53.257Z,17.68
2023-05-05T01:43:03.498Z,17.68
2023-05-05T01:43:13.768Z,17.66
2023-05-05T01:43:24.032Z,17.66
2023-05-05T01:43:34.279Z,17.65
2023-05-05T01:43:44.555Z,17.65
2023-05-05T01:43:54.804Z,17.66
2023-05-05T01:44:05.068Z,17.63
2023-05-05T01:44:15.324Z,17.65
2023-05-05T01:44:25.595Z,17.63
2023-05-05T01:44:35.845Z,17.63
2023-05-05T01:44:46.111Z,17.63
2023-05-05T01:44:56.376Z,17.63
2023-05-05T01:45:06.646Z,17.60
2023-05-05T01:45:16.906Z,17.60
2023-05-05T01:45:27.189Z,17.60
2023-05-05T01:45:37.476Z,17.60
2023-05-05T01:45:47.750Z,17.60
2023-05-05T01:45:58.049Z,17.59
2023-05-05T01:46:08.335Z,17.59
2023-05-05T01:46:18.593Z,17.59
2023-05-05T01:46:28.847Z,17.59
2023-05-05T01:46:39.121Z,17.59
2023-05-05T01:46:49.393Z,17.59
2023-05-05T01:46:59.664Z,17.57
2023-05-05T01:47:09.898Z,17.57
2023-05-05T01:47:20.170Z,17.54
2023-05-05T01:47:30.466Z,17.56
2023-05-05T01:47:40.735Z,17.54
2023-05-05T01:47:51.050Z,17.54
2023-05-05T01:48:01.439Z,17.56
2023-05-05T01:48:11.675Z,17.53
2023-05-05T01:48:21.943Z,17.54
2023-05-05T01:48:32.214Z,17.53
2023-05-05T01:48:42.460Z,17.53
2023-05-05T01:48:52.731Z,17.53
2023-05-05T01:49:02.994Z,17.52
2023-05-05T01:49:13.247Z,17.52
2023-05-05T01:49:23.516Z,17.52
2023-05-05T01:49:33.772Z,17.50
2023-05-05T01:49:44.028Z,17.52
2023-05-05T01:49:54.287Z,17.49
2023-05-05T01:50:04.563Z,17.50
2023-05-05T01:50:14.813Z,17.50
2023-05-05T01:50:25.070Z,17.49
2023-05-05T01:50:35.336Z,17.49
2023-05-05T01:50:45.587Z,17.50
2023-05-05T01:50:55.857Z,17.49
2023-05-05T01:51:06.118Z,17.46
2023-05-05T01:51:16.377Z,17.47
2023-05-05T01:51:26.648Z,17.46
2023-05-05T01:51:36.896Z,17.46
2023-05-05T01:51:47.154Z,17.46
2023-05-05T01:51:57.415Z,17.44
2023-05-05T01:52:07.672Z,17.46
2023-05-05T01:52:17.949Z,17.44
2023-05-05T01:52:28.195Z,17.42
2023-05-05T01:52:38.468Z,17.44
2023-05-05T01:52:48.734Z,17.42
2023-05-05T01:52:58.995Z,17.42
2023-05-05T01:53:09.258Z,17.42
2023-05-05T01:53:19.521Z,17.42
2023-05-05T01:53:29.806Z,17.42
2023-05-05T01:53:40.052Z,17.39
2023-05-05T01:53:50.306Z,17.39
2023-05-05T01:54:00.575Z,17.41
2023-05-05T01:54:10.828Z,17.38
2023-05-05T01:54:21.084Z,17.39
2023-05-05T01:54:31.347Z,17.41
2023-05-05T01:54:41.608Z,17.38
2023-05-05T01:54:51.881Z,17.41
2023-05-05T01:55:02.132Z,17.39
2023-05-05T01:55:12.395Z,17.39
2023-05-05T01:55:22.666Z,17.37
2023-05-05T01:55:32.964Z,17.39
2023-05-05T01:55:43.195Z,17.38
2023-05-05T01:55:53.453Z,17.37
2023-05-05T01:56:03.719Z,17.37
2023-05-05T01:56:13.996Z,17.37
2023-05-05T01:56:24.250Z,17.37
2023-05-05T01:56:34.542Z,17.37
2023-05-05T01:56:44.765Z,17.35
2023-05-05T01:56:55.023Z,17.35
2023-05-05T01:57:05.285Z,17.38
2023-05-05T01:57:15.544Z,17.35
2023-05-05T01:57:25.813Z,17.35
2023-05-05T01:57:36.075Z,17.35
2023-05-05T01:57:46.354Z,17.34
2023-05-05T01:57:56.634Z,17.34
2023-05-05T01:58:06.880Z,17.34
2023-05-05T01:58:17.169Z,17.32
2023-05-05T01:58:27.407Z,17.31
2023-05-05T01:58:37.665Z,17.34
2023-05-05T01:58:47.927Z,17.32
2023-05-05T01:58:58.204Z,17.31
2023-05-05T01:59:08.454Z,17.32
2023-05-05T01:59:18.721Z,17.31
2023-05-05T01:59:28.979Z,17.31
2023-05-05T01:59:39.240Z,17.31
2023-05-05T01:59:49.504Z,17.31
2023-05-05T01:59:59.779Z,17.30
2023-05-05T02:00:10.207Z,17.30
2023-05-05T02:00:20.416Z,17.27
2023-05-05T02:00:30.672Z,17.27
2023-05-05T02:00:40.950Z,17.27
2023-05-05T02:00:51.227Z,17.28
2023-05-05T02:01:01.482Z,17.27
2023-05-05T02:01:11.750Z,17.28
2023-05-05T02:01:22.042Z,17.27
2023-05-05T02:01:32.318Z,17.27
2023-05-05T02:01:42.559Z,17.28
2023-05-05T02:01:52.825Z,17.23
2023-05-05T02:02:03.232Z,17.27
2023-05-05T02:02:13.318Z,17.27
2023-05-05T02:02:23.610Z,17.24
2023-05-05T02:02:33.886Z,17.23
2023-05-05T02:02:44.313Z,17.23
2023-05-05T02:02:54.449Z,17.22
2023-05-05T02:03:04.796Z,17.23
2023-05-05T02:03:15.135Z,17.23
2023-05-05T02:03:25.596Z,17.23
2023-05-05T02:03:35.889Z,17.22
2023-05-05T02:03:46.138Z,17.22
2023-05-05T02:03:56.398Z,17.22
2023-05-05T02:04:06.679Z,17.22
2023-05-05T02:04:16.926Z,17.22
2023-05-05T02:04:27.192Z,17.22
2023-05-05T02:04:37.452Z,17.22
2023-05-05T02:04:47.703Z,17.20
2023-05-05T02:04:57.964Z,17.20
2023-05-05T02:05:08.224Z,17.22
2023-05-05T02:05:18.487Z,17.19
2023-05-05T02:05:28.744Z,17.20
2023-05-05T02:05:39.029Z,17.19
2023-05-05T02:05:49.301Z,17.19
2023-05-05T02:05:59.544Z,17.19
2023-05-05T02:06:09.827Z,17.20
2023-05-05T02:06:20.108Z,17.19
2023-05-05T02:06:30.370Z,17.17
2023-05-05T02:06:40.610Z,17.17
2023-05-05T02:06:50.874Z,17.17
2023-05-05T02:07:01.128Z,17.17
2023-05-05T02:07:11.388Z,17.17
2023-05-05T02:07:21.654Z,17.16
2023-05-05T02:07:31.918Z,17.19
2023-05-05T02:07:42.172Z,17.16
2023-05-05T02:07:52.434Z,17.17
2023-05-05T02:08:02.696Z,17.19
2023-05-05T02:08:12.964Z,17.16
2023-05-05T02:08:23.297Z,17.14
2023-05-05T02:08:33.583Z,17.14
2023-05-05T02:08:46.826Z,17.16
2023-05-05T02:08:54.064Z,17.16
2023-05-05T02:09:04.330Z,17.14
2023-05-05T02:09:14.595Z,17.13
2023-05-05T02:09:24.854Z,17.14
2023-05-05T02:09:35.116Z,17.14
2023-05-05T02:09:55.803Z,17.16
2023-05-05T02:10:06.347Z,17.14
2023-05-05T02:10:16.300Z,17.13
2023-05-05T02:10:26.567Z,17.14
2023-05-05T02:10:36.913Z,17.14
2023-05-05T02:10:47.169Z,17.13
2023-05-05T02:10:57.434Z,17.13
2023-05-05T02:11:07.688Z,17.13
2023-05-05T02:11:17.949Z,17.13
2023-05-05T02:11:28.205Z,17.12
2023-05-05T02:11:38.533Z,17.13
2023-05-05T02:11:48.759Z,17.13
2023-05-05T02:11:59.027Z,17.13
2023-05-05T02:12:09.281Z,17.10
2023-05-05T02:12:19.543Z,17.10